Time;durP1;ratioP1;P1;durP2;ratioP2;P2;SDS_P1;SDS_P2;PMS_P1;PMS_P2;Temp;Humidity;BMP_temperature;BMP_pressure;BME280_temperature;BME280_humidity;BME280_pressure;Samples;Min_cycle;Max_cycle;Signal;HPM_P1;HPM_P2
2023/03/11 00:00:41;;;;;;;;;6.00;6.00;;;;;-147.17;100.00;-15917.19;5109390;27;51314;-57
2023/03/11 00:03:07;;;;;;;;;5.00;3.00;;;;;-147.17;100.00;-15917.19;5090680;27;51843;-57
2023/03/11 00:05:36;;;;;;;;;5.25;4.00;;;;;-147.17;100.00;-15917.19;5109789;27;51241;-58
2023/03/11 00:08:03;;;;;;;;;5.00;5.00;;;;;-147.17;100.00;-15917.19;5110263;27;51020;-59
2023/03/11 00:10:31;;;;;;;;;3.00;3.00;;;;;-147.17;100.00;-15917.19;5108293;27;51119;-59
2023/03/11 00:12:58;;;;;;;;;5.25;5.00;;;;;-147.17;100.00;-15917.19;5107535;27;53006;-59
2023/03/11 00:15:24;;;;;;;;;6.00;3.00;;;;;-147.17;100.00;-15917.19;5110614;27;51127;-57
2023/03/11 00:17:49;;;;;;;;;6.25;5.75;;;;;-147.17;100.00;-15917.19;5110420;27;51125;-57
2023/03/11 00:20:22;;;;;;;;;2.00;2.00;;;;;-147.17;100.00;-15917.19;5106806;27;51472;-57
2023/03/11 00:22:47;;;;;;;;;5.00;5.00;;;;;-147.17;100.00;-15917.19;5111290;27;51737;-58
2023/03/11 00:25:14;;;;;;;;;5.50;5.50;;;;;-147.17;100.00;-15917.19;5109970;27;51401;-59
2023/03/11 00:27:39;;;;;;;;;2.50;2.50;;;;;-147.17;100.00;-15917.19;5106685;27;51068;-58
2023/03/11 00:30:05;;;;;;;;;5.75;5.00;;;;;-147.17;100.00;-15917.19;5109470;27;52059;-58
2023/03/11 00:32:31;;;;;;;;;9.50;8.50;;;;;-147.17;100.00;-15917.19;5109568;27;52098;-58
2023/03/11 00:34:56;;;;;;;;;9.50;9.00;;;;;-147.17;100.00;-15917.19;5090524;27;51010;-58
2023/03/11 00:37:22;;;;;;;;;15.50;15.00;;;;;-147.17;100.00;-15917.19;5110323;27;51154;-58
2023/03/11 00:39:47;;;;;;;;;16.75;16.50;;;;;-147.17;100.00;-15917.19;5104207;27;51161;-58
2023/03/11 00:42:12;;;;;;;;;31.25;28.00;;;;;-147.17;100.00;-15917.19;5107737;27;52344;-58
2023/03/11 00:44:38;;;;;;;;;31.25;29.75;;;;;-147.17;100.00;-15917.19;5113523;27;51590;-57
2023/03/11 00:47:03;;;;;;;;;30.50;28.25;;;;;-147.17;100.00;-15917.19;5111429;27;51769;-58
2023/03/11 00:49:29;;;;;;;;;29.75;29.25;;;;;-147.17;100.00;-15917.19;5083500;27;51385;-57
2023/03/11 00:51:54;;;;;;;;;22.25;21.50;;;;;-147.17;100.00;-15917.19;5113183;27;51948;-57
2023/03/11 00:54:19;;;;;;;;;19.75;17.00;;;;;-147.17;100.00;-15917.19;5112510;27;50976;-58
2023/03/11 00:56:45;;;;;;;;;11.00;11.00;;;;;-147.17;100.00;-15917.19;5095948;27;51370;-57
2023/03/11 00:59:10;;;;;;;;;13.75;12.50;;;;;-147.17;100.00;-15917.19;5114979;27;51104;-61
2023/03/11 01:01:35;;;;;;;;;10.75;10.75;;;;;-147.17;100.00;-15917.19;5110461;27;51109;-57
2023/03/11 01:04:01;;;;;;;;;10.00;8.75;;;;;-147.17;100.00;-15917.19;5111453;27;51160;-58
2023/03/11 01:06:26;;;;;;;;;12.00;12.00;;;;;-147.17;100.00;-15917.19;5112712;27;51116;-58
2023/03/11 01:08:51;;;;;;;;;10.75;10.00;;;;;-147.17;100.00;-15917.19;5112757;27;51008;-58
2023/03/11 01:11:17;;;;;;;;;12.25;12.00;;;;;-147.17;100.00;-15917.19;5108956;27;51636;-58
2023/03/11 01:13:42;;;;;;;;;12.00;11.00;;;;;-147.17;100.00;-15917.19;5113529;27;51023;-57
2023/03/11 01:16:08;;;;;;;;;10.50;10.00;;;;;-147.17;100.00;-15917.19;5113146;27;51237;-59
2023/03/11 01:18:33;;;;;;;;;11.25;11.25;;;;;-147.17;100.00;-15917.19;5115071;27;51416;-59
2023/03/11 01:20:59;;;;;;;;;10.00;10.00;;;;;-147.17;100.00;-15917.19;5111098;27;52951;-57
2023/03/11 01:23:24;;;;;;;;;11.25;11.00;;;;;-147.17;100.00;-15917.19;5109981;27;51158;-57
2023/03/11 01:25:50;;;;;;;;;9.75;7.75;;;;;-147.17;100.00;-15917.19;5114753;27;51155;-58
2023/03/11 01:28:15;;;;;;;;;10.00;10.00;;;;;-147.17;100.00;-15917.19;5110878;27;51704;-58
2023/03/11 01:30:41;;;;;;;;;10.00;9.25;;;;;-147.17;100.00;-15917.19;5113250;27;51931;-57
2023/03/11 01:33:12;;;;;;;;;12.00;12.00;;;;;-147.17;100.00;-15917.19;5110940;27;51768;-57
2023/03/11 01:35:38;;;;;;;;;7.00;7.00;;;;;-147.17;100.00;-15917.19;5114001;27;50979;-57
2023/03/11 01:38:04;;;;;;;;;11.75;10.00;;;;;-147.17;100.00;-15917.19;5113319;27;51269;-58
2023/03/11 01:40:29;;;;;;;;;8.00;7.25;;;;;-147.17;100.00;-15917.19;5115224;27;51246;-58
2023/03/11 01:42:55;;;;;;;;;10.00;9.75;;;;;-147.17;100.00;-15917.19;5108983;27;51182;-58
2023/03/11 01:45:35;;;;;;;;;7.50;6.50;;;;;-147.17;100.00;-15917.19;5113845;27;51108;-57
2023/03/11 01:48:00;;;;;;;;;5.00;5.00;;;;;-147.17;100.00;-15917.19;5105465;27;51229;-58
2023/03/11 01:50:33;;;;;;;;;6.00;6.00;;;;;-147.17;100.00;-15917.19;5111166;27;51042;-59
2023/03/11 01:52:58;;;;;;;;;9.50;6.25;;;;;-147.17;100.00;-15917.19;5108259;27;51407;-58
2023/03/11 01:55:25;;;;;;;;;5.00;5.00;;;;;-147.17;100.00;-15917.19;5091029;27;51157;-58
2023/03/11 01:57:51;;;;;;;;;5.00;5.00;;;;;-147.17;100.00;-15917.19;5097701;27;51175;-58
2023/03/11 02:00:17;;;;;;;;;7.00;6.00;;;;;-147.17;100.00;-15917.19;5108686;27;51386;-58
2023/03/11 02:02:49;;;;;;;;;3.00;3.00;;;;;-147.17;100.00;-15917.19;5109785;27;50987;-57
2023/03/11 02:05:15;;;;;;;;;5.00;5.00;;;;;-147.17;100.00;-15917.19;5110536;27;51248;-58
2023/03/11 02:07:41;;;;;;;;;3.50;3.50;;;;;-147.17;100.00;-15917.19;5111367;27;51319;-59
2023/03/11 02:10:08;;;;;;;;;6.00;6.00;;;;;-147.17;100.00;-15917.19;5109946;27;51105;-56
2023/03/11 02:12:36;;;;;;;;;4.25;4.00;;;;;-147.17;100.00;-15917.19;5111431;27;51120;-57
2023/03/11 02:15:03;;;;;;;;;3.50;3.00;;;;;-147.17;100.00;-15917.19;5111939;27;51344;-58
2023/03/11 02:17:30;;;;;;;;;2.75;2.25;;;;;-147.17;100.00;-15917.19;5114022;27;51174;-58
2023/03/11 02:20:28;;;;;;;;;2.00;2.00;;;;;-147.17;100.00;-15917.19;5109267;27;51137;-58
2023/03/11 02:22:56;;;;;;;;;2.00;2.00;;;;;-147.17;100.00;-15917.19;5088842;27;51338;-58
2023/03/11 02:25:42;;;;;;;;;2.50;2.50;;;;;-147.17;100.00;-15917.19;5112385;27;51395;-58
2023/03/11 02:28:11;;;;;;;;;2.25;2.25;;;;;-147.17;100.00;-15917.19;5106616;27;51165;-58
2023/03/11 02:30:39;;;;;;;;;3.00;3.00;;;;;-147.17;100.00;-15917.19;5111413;27;51303;-59
2023/03/11 02:33:05;;;;;;;;;2.00;1.75;;;;;-147.17;100.00;-15917.19;5110465;27;51029;-56
2023/03/11 02:35:30;;;;;;;;;2.50;2.50;;;;;-147.17;100.00;-15917.19;5110475;27;51164;-59
2023/03/11 02:37:56;;;;;;;;;3.00;3.00;;;;;-147.17;100.00;-15917.19;5111970;27;51208;-58
2023/03/11 02:40:29;;;;;;;;;2.00;1.25;;;;;-147.17;100.00;-15917.19;5106679;27;51916;-58
2023/03/11 02:43:05;;;;;;;;;2.50;2.50;;;;;-147.17;100.00;-15917.19;5106772;27;51311;-58
2023/03/11 02:45:31;;;;;;;;;2.00;2.00;;;;;-147.17;100.00;-15917.19;5110112;27;51168;-58
2023/03/11 02:47:58;;;;;;;;;1.25;1.00;;;;;-147.17;100.00;-15917.19;5103149;27;51023;-58
2023/03/11 02:50:25;;;;;;;;;2.00;2.00;;;;;-147.17;100.00;-15917.19;5112311;27;51312;-59
2023/03/11 02:52:51;;;;;;;;;2.50;2.00;;;;;-147.17;100.00;-15917.19;5110468;27;51191;-59
2023/03/11 02:55:19;;;;;;;;;1.50;1.50;;;;;-147.17;100.00;-15917.19;5111698;27;51156;-60
2023/03/11 02:57:46;;;;;;;;;2.50;1.50;;;;;-147.17;100.00;-15917.19;5111986;27;51367;-57
2023/03/11 03:00:13;;;;;;;;;4.50;3.00;;;;;-147.17;100.00;-15917.19;5109253;27;51946;-57
2023/03/11 03:02:40;;;;;;;;;5.00;2.75;;;;;-147.17;100.00;-15917.19;5109955;27;51042;-57
2023/03/11 03:05:06;;;;;;;;;3.00;2.00;;;;;-147.17;100.00;-15917.19;5109574;27;51322;-57
2023/03/11 03:07:32;;;;;;;;;1.25;1.25;;;;;-147.17;100.00;-15917.19;5111458;27;51249;-58
2023/03/11 03:09:57;;;;;;;;;2.00;2.00;;;;;-147.17;100.00;-15917.19;5108264;27;51243;-58
2023/03/11 03:12:23;;;;;;;;;2.00;2.00;;;;;-147.17;100.00;-15917.19;5088585;27;51162;-57
2023/03/11 03:14:48;;;;;;;;;3.00;3.00;;;;;-147.17;100.00;-15917.19;5112506;27;51151;-57
2023/03/11 03:17:13;;;;;;;;;3.50;3.50;;;;;-147.17;100.00;-15917.19;5110707;27;51291;-59
2023/03/11 03:19:39;;;;;;;;;2.75;2.75;;;;;-147.17;100.00;-15917.19;5111403;27;51693;-58
2023/03/11 03:22:04;;;;;;;;;5.50;2.50;;;;;-147.17;100.00;-15917.19;5110086;27;51137;-60
2023/03/11 03:24:30;;;;;;;;;5.00;5.00;;;;;-147.17;100.00;-15917.19;5102490;27;51691;-59
2023/03/11 03:26:57;;;;;;;;;5.50;5.25;;;;;-147.17;100.00;-15917.19;5099360;27;51282;-59
2023/03/11 03:29:22;;;;;;;;;4.50;4.50;;;;;-147.17;100.00;-15917.19;5091368;27;52910;-60
2023/03/11 03:31:48;;;;;;;;;5.50;5.25;;;;;-147.17;100.00;-15917.19;5103510;27;51207;-58
2023/03/11 03:34:13;;;;;;;;;6.25;6.00;;;;;-147.17;100.00;-15917.19;5107485;27;51127;-57
2023/03/11 03:36:39;;;;;;;;;2.50;2.50;;;;;-147.17;100.00;-15917.19;5111977;27;51021;-58
2023/03/11 03:39:05;;;;;;;;;4.50;4.50;;;;;-147.17;100.00;-15917.19;5107900;27;51655;-58
2023/03/11 03:41:30;;;;;;;;;5.50;4.50;;;;;-147.17;100.00;-15917.19;5089920;27;51114;-58
2023/03/11 03:43:56;;;;;;;;;5.00;5.00;;;;;-147.17;100.00;-15917.19;5108026;27;51154;-59
2023/03/11 03:46:21;;;;;;;;;6.75;5.75;;;;;-147.17;100.00;-15917.19;5106328;27;51071;-58
2023/03/11 03:48:47;;;;;;;;;6.00;4.00;;;;;-147.17;100.00;-15917.19;5109948;27;51605;-58
2023/03/11 03:51:13;;;;;;;;;4.00;4.00;;;;;-147.17;100.00;-15917.19;5107665;27;51154;-58
2023/03/11 03:53:39;;;;;;;;;5.00;5.00;;;;;-147.17;100.00;-15917.19;5109377;27;51150;-58
2023/03/11 03:56:11;;;;;;;;;5.25;5.00;;;;;-147.17;100.00;-15917.19;5105860;27;51833;-58
2023/03/11 03:58:36;;;;;;;;;5.00;4.50;;;;;-147.17;100.00;-15917.19;5107422;27;51078;-58
2023/03/11 04:01:03;;;;;;;;;6.00;5.75;;;;;-147.17;100.00;-15917.19;5107515;27;52663;-58
2023/03/11 04:03:30;;;;;;;;;6.25;6.00;;;;;-147.17;100.00;-15917.19;5112101;27;51077;-59
2023/03/11 04:06:09;;;;;;;;;6.25;5.50;;;;;-147.17;100.00;-15917.19;5108228;27;51340;-59
2023/03/11 04:08:34;;;;;;;;;4.50;4.50;;;;;-147.17;100.00;-15917.19;5087984;27;52756;-59
2023/03/11 04:10:59;;;;;;;;;5.00;4.00;;;;;-147.17;100.00;-15917.19;5106165;27;50870;-59
2023/03/11 04:13:25;;;;;;;;;6.00;6.00;;;;;-147.17;100.00;-15917.19;5107646;27;50975;-59
2023/03/11 04:15:50;;;;;;;;;5.00;5.00;;;;;-147.17;100.00;-15917.19;5111370;27;50959;-60
2023/03/11 04:18:15;;;;;;;;;7.00;6.00;;;;;-147.17;100.00;-15917.19;5114854;27;51064;-60
2023/03/11 04:20:41;;;;;;;;;7.00;7.00;;;;;-147.17;100.00;-15917.19;5094586;27;51065;-59
2023/03/11 04:23:06;;;;;;;;;7.00;7.00;;;;;-147.17;100.00;-15917.19;5115151;27;50873;-60
2023/03/11 04:25:33;;;;;;;;;3.25;1.50;;;;;-147.17;100.00;-15917.19;5108658;27;51190;-59
2023/03/11 04:27:58;;;;;;;;;8.50;7.00;;;;;-147.17;100.00;-15917.19;5112572;27;51801;-59
2023/03/11 04:30:24;;;;;;;;;5.00;4.50;;;;;-147.17;100.00;-15917.19;5115861;27;51070;-59
2023/03/11 04:32:49;;;;;;;;;10.25;9.25;;;;;-147.17;100.00;-15917.19;5112626;27;51063;-60
2023/03/11 04:35:14;;;;;;;;;10.00;9.00;;;;;-147.17;100.00;-15917.19;5095794;27;51277;-59
2023/03/11 04:37:40;;;;;;;;;9.75;9.25;;;;;-147.17;100.00;-15917.19;5093442;27;53832;-59
2023/03/11 04:40:06;;;;;;;;;9.50;9.50;;;;;-147.17;100.00;-15917.19;5090670;27;51269;-59
2023/03/11 04:42:31;;;;;;;;;11.00;11.00;;;;;-147.17;100.00;-15917.19;5106063;27;52182;-59
2023/03/11 04:44:57;;;;;;;;;9.25;7.50;;;;;-147.17;100.00;-15917.19;5103367;27;51730;-59
2023/03/11 04:47:22;;;;;;;;;6.50;6.50;;;;;-147.17;100.00;-15917.19;5111612;27;51730;-58
2023/03/11 04:49:47;;;;;;;;;6.75;6.75;;;;;-147.17;100.00;-15917.19;5114753;27;51175;-57
2023/03/11 04:52:13;;;;;;;;;6.25;6.25;;;;;-147.17;100.00;-15917.19;5113076;27;52785;-57
2023/03/11 04:54:39;;;;;;;;;6.75;6.00;;;;;-147.17;100.00;-15917.19;5116688;27;50917;-57
2023/03/11 04:57:05;;;;;;;;;7.00;7.00;;;;;-147.17;100.00;-15917.19;5113033;27;51906;-57
2023/03/11 04:59:30;;;;;;;;;10.50;8.75;;;;;-147.17;100.00;-15917.19;5107032;27;51221;-59
2023/03/11 05:01:55;;;;;;;;;10.00;9.00;;;;;-147.17;100.00;-15917.19;5114468;27;51438;-58
2023/03/11 05:04:21;;;;;;;;;12.00;10.00;;;;;-147.17;100.00;-15917.19;5110505;27;51268;-58
2023/03/11 05:06:49;;;;;;;;;13.00;13.00;;;;;-147.17;100.00;-15917.19;5113623;27;51778;-58
2023/03/11 05:09:14;;;;;;;;;14.00;13.00;;;;;-147.17;100.00;-15917.19;5109515;27;51088;-59
2023/03/11 05:11:40;;;;;;;;;6.00;6.00;;;;;-147.17;100.00;-15917.19;5114362;27;51040;-57
2023/03/11 05:14:05;;;;;;;;;10.75;10.25;;;;;-147.17;100.00;-15917.19;5111861;27;51160;-58
2023/03/11 05:16:31;;;;;;;;;9.25;9.25;;;;;-147.17;100.00;-15917.19;5110491;27;51843;-58
2023/03/11 05:18:56;;;;;;;;;16.50;14.75;;;;;-147.17;100.00;-15917.19;5114007;27;51056;-60
2023/03/11 05:21:21;;;;;;;;;9.00;6.50;;;;;-147.17;100.00;-15917.19;5105672;27;51045;-58
2023/03/11 05:23:47;;;;;;;;;7.25;5.75;;;;;-147.17;100.00;-15917.19;5109943;27;51279;-57
2023/03/11 05:26:12;;;;;;;;;6.00;5.25;;;;;-147.17;100.00;-15917.19;5108332;27;52147;-58
2023/03/11 05:28:37;;;;;;;;;9.00;9.00;;;;;-147.17;100.00;-15917.19;5097030;27;51401;-58
2023/03/11 05:31:07;;;;;;;;;10.00;10.00;;;;;-147.17;100.00;-15917.19;5110427;27;51709;-58
2023/03/11 05:33:34;;;;;;;;;11.50;11.50;;;;;-147.17;100.00;-15917.19;5088590;27;51818;-58
2023/03/11 05:36:08;;;;;;;;;14.00;12.00;;;;;-147.17;100.00;-15917.19;5112682;27;52806;-58
2023/03/11 05:38:34;;;;;;;;;9.50;8.50;;;;;-147.17;100.00;-15917.19;5100873;27;51405;-59
2023/03/11 05:40:59;;;;;;;;;11.25;10.00;;;;;-147.17;100.00;-15917.19;5108977;27;51220;-57
2023/03/11 05:43:25;;;;;;;;;9.00;7.25;;;;;-147.17;100.00;-15917.19;5106567;27;51965;-58
2023/03/11 05:45:50;;;;;;;;;11.00;11.00;;;;;-147.17;100.00;-15917.19;5114500;27;51838;-56
2023/03/11 05:48:15;;;;;;;;;9.00;9.00;;;;;-147.17;100.00;-15917.19;5092623;27;51153;-58
2023/03/11 05:50:41;;;;;;;;;6.75;6.75;;;;;-147.17;100.00;-15917.19;5109106;27;51360;-58
2023/03/11 05:53:06;;;;;;;;;7.25;6.75;;;;;-147.17;100.00;-15917.19;5113036;27;51141;-58
2023/03/11 05:55:31;;;;;;;;;10.75;9.75;;;;;-147.17;100.00;-15917.19;5115463;27;51888;-58
2023/03/11 05:57:57;;;;;;;;;8.00;6.75;;;;;-147.17;100.00;-15917.19;5112967;27;51108;-58
2023/03/11 06:00:22;;;;;;;;;7.25;6.25;;;;;-147.17;100.00;-15917.19;5109656;27;51356;-58
2023/03/11 06:02:48;;;;;;;;;12.75;12.00;;;;;-147.17;100.00;-15917.19;5114291;27;51245;-58
2023/03/11 06:05:13;;;;;;;;;10.00;9.25;;;;;-147.17;100.00;-15917.19;5106968;27;51175;-58
2023/03/11 06:07:39;;;;;;;;;10.00;9.00;;;;;-147.17;100.00;-15917.19;5111976;27;51202;-60
2023/03/11 06:10:05;;;;;;;;;9.50;8.00;;;;;-147.17;100.00;-15917.19;5113763;27;51009;-58
2023/03/11 06:12:32;;;;;;;;;9.00;9.00;;;;;-147.17;100.00;-15917.19;5094327;27;51510;-58
2023/03/11 06:14:58;;;;;;;;;7.00;6.00;;;;;-147.17;100.00;-15917.19;5114132;27;52343;-58
2023/03/11 06:17:23;;;;;;;;;6.75;6.75;;;;;-147.17;100.00;-15917.19;5112593;27;51183;-58
2023/03/11 06:19:49;;;;;;;;;5.50;2.50;;;;;-147.17;100.00;-15917.19;5114213;27;51266;-58
2023/03/11 06:22:14;;;;;;;;;10.75;9.75;;;;;-147.17;100.00;-15917.19;5109461;27;51011;-58
2023/03/11 06:24:39;;;;;;;;;8.00;6.75;;;;;-147.17;100.00;-15917.19;5113627;27;52263;-58
2023/03/11 06:27:05;;;;;;;;;8.00;7.50;;;;;-147.17;100.00;-15917.19;5114241;27;51097;-57
2023/03/11 06:29:30;;;;;;;;;4.50;4.50;;;;;-147.17;100.00;-15917.19;5112116;27;50979;-57
2023/03/11 06:31:55;;;;;;;;;8.50;7.00;;;;;-147.17;100.00;-15917.19;5104067;27;51344;-58
2023/03/11 06:34:22;;;;;;;;;8.25;7.00;;;;;-147.17;100.00;-15917.19;5108776;27;51886;-58
2023/03/11 06:36:47;;;;;;;;;7.25;6.00;;;;;-147.17;100.00;-15917.19;5108751;27;51058;-58
2023/03/11 06:39:14;;;;;;;;;3.00;3.00;;;;;-147.17;100.00;-15917.19;5105016;27;51187;-58
2023/03/11 06:41:40;;;;;;;;;6.75;6.75;;;;;-147.17;100.00;-15917.19;5103359;27;50931;-58
2023/03/11 06:44:06;;;;;;;;;5.00;5.00;;;;;-147.17;100.00;-15917.19;5103718;27;52910;-58
2023/03/11 06:46:31;;;;;;;;;10.25;8.00;;;;;-147.17;100.00;-15917.19;5110614;27;51022;-58
2023/03/11 06:48:57;;;;;;;;;7.00;7.00;;;;;-147.17;100.00;-15917.19;5113995;27;51245;-58
2023/03/11 06:51:22;;;;;;;;;9.50;8.50;;;;;-147.17;100.00;-15917.19;5085083;27;51278;-57
2023/03/11 06:53:53;;;;;;;;;6.00;5.75;;;;;-147.17;100.00;-15917.19;5107739;27;51667;-57
2023/03/11 06:56:20;;;;;;;;;7.25;6.75;;;;;-147.17;100.00;-15917.19;5112424;27;52442;-57
2023/03/11 06:58:46;;;;;;;;;6.00;5.75;;;;;-147.17;100.00;-15917.19;5113959;27;51017;-57
2023/03/11 07:01:14;;;;;;;;;8.50;7.00;;;;;-147.17;100.00;-15917.19;5087385;27;51751;-58
2023/03/11 07:03:40;;;;;;;;;9.00;9.00;;;;;-147.17;100.00;-15917.19;5112905;27;52009;-59
2023/03/11 07:06:06;;;;;;;;;6.75;6.25;;;;;-147.17;100.00;-15917.19;5107631;27;51046;-58
2023/03/11 07:08:31;;;;;;;;;5.50;5.50;;;;;-147.17;100.00;-15917.19;5100195;27;51111;-59
2023/03/11 07:11:05;;;;;;;;;10.25;9.25;;;;;-147.17;100.00;-15917.19;5107223;27;51194;-57
2023/03/11 07:13:31;;;;;;;;;6.00;5.25;;;;;-147.17;100.00;-15917.19;5104085;27;51310;-57
2023/03/11 07:16:04;;;;;;;;;11.50;9.25;;;;;-147.17;100.00;-15917.19;5112405;27;51307;-57
2023/03/11 07:18:29;;;;;;;;;11.00;10.25;;;;;-147.17;100.00;-15917.19;5113853;27;51103;-58
2023/03/11 07:20:55;;;;;;;;;9.00;7.50;;;;;-147.17;100.00;-15917.19;5111486;27;51180;-58
2023/03/11 07:23:20;;;;;;;;;7.00;7.00;;;;;-147.17;100.00;-15917.19;5110926;27;52708;-58
2023/03/11 07:25:47;;;;;;;;;7.00;6.75;;;;;-147.17;100.00;-15917.19;5107379;27;51227;-57
2023/03/11 07:28:12;;;;;;;;;6.25;5.75;;;;;-147.17;100.00;-15917.19;5112319;27;51115;-58
2023/03/11 07:30:38;;;;;;;;;5.25;5.25;;;;;-147.17;100.00;-15917.19;5112063;27;51211;-58
2023/03/11 07:33:04;;;;;;;;;5.25;5.00;;;;;-147.17;100.00;-15917.19;5112487;27;51724;-58
2023/03/11 07:35:29;;;;;;;;;9.00;8.50;;;;;-147.17;100.00;-15917.19;5111688;27;51108;-58
2023/03/11 07:37:54;;;;;;;;;7.50;7.50;;;;;-147.17;100.00;-15917.19;5113826;27;51012;-58
2023/03/11 07:40:20;;;;;;;;;10.25;9.75;;;;;-147.17;100.00;-15917.19;5105413;27;51387;-59
2023/03/11 07:42:45;;;;;;;;;8.75;7.00;;;;;-147.17;100.00;-15917.19;5098710;27;53186;-58
2023/03/11 07:45:10;;;;;;;;;6.00;5.25;;;;;-147.17;100.00;-15917.19;5112182;27;51172;-58
2023/03/11 07:47:36;;;;;;;;;7.00;6.25;;;;;-147.17;100.00;-15917.19;5094811;27;51360;-58
2023/03/11 07:50:01;;;;;;;;;9.75;7.00;;;;;-147.17;100.00;-15917.19;5109074;27;50963;-59
2023/03/11 07:52:30;;;;;;;;;9.00;7.00;;;;;-147.17;100.00;-15917.19;5113878;27;51617;-58
2023/03/11 07:54:55;;;;;;;;;7.00;7.00;;;;;-147.17;100.00;-15917.19;5116651;27;51136;-58
2023/03/11 07:57:21;;;;;;;;;6.75;6.75;;;;;-147.17;100.00;-15917.19;5113998;27;51679;-58
2023/03/11 07:59:46;;;;;;;;;8.50;6.75;;;;;-147.17;100.00;-15917.19;5098520;27;51036;-59
2023/03/11 08:02:11;;;;;;;;;7.00;6.50;;;;;-147.17;100.00;-15917.19;5096217;27;61515;-58
2023/03/11 08:04:37;;;;;;;;;10.00;9.75;;;;;-147.17;100.00;-15917.19;5116235;27;51160;-58
2023/03/11 08:07:02;;;;;;;;;5.75;5.75;;;;;-147.17;100.00;-15917.19;5115184;27;51154;-57
2023/03/11 08:09:28;;;;;;;;;8.00;7.00;;;;;-147.17;100.00;-15917.19;5098634;27;51327;-58
2023/03/11 08:11:53;;;;;;;;;6.75;5.75;;;;;-147.17;100.00;-15917.19;5096183;27;53169;-59
2023/03/11 08:14:18;;;;;;;;;5.00;5.00;;;;;-147.17;100.00;-15917.19;5116750;27;51031;-59
2023/03/11 08:16:44;;;;;;;;;5.75;5.75;;;;;-147.17;100.00;-15917.19;5106592;27;51127;-58
2023/03/11 08:19:13;;;;;;;;;2.25;2.25;;;;;-147.17;100.00;-15917.19;5103592;27;51433;-58
2023/03/11 08:21:38;;;;;;;;;5.00;5.00;;;;;-147.17;100.00;-15917.19;5116219;27;51276;-57
2023/03/11 08:24:04;;;;;;;;;6.25;6.25;;;;;-147.17;100.00;-15917.19;5109661;27;51272;-58
2023/03/11 08:26:30;;;;;;;;;3.00;3.00;;;;;-147.17;100.00;-15917.19;5116804;27;51128;-58
2023/03/11 08:28:57;;;;;;;;;3.00;3.00;;;;;-147.17;100.00;-15917.19;5115767;27;51303;-57
2023/03/11 08:31:25;;;;;;;;;4.25;3.00;;;;;-147.17;100.00;-15917.19;5115606;27;52242;-60
2023/03/11 08:33:52;;;;;;;;;5.00;3.00;;;;;-147.17;100.00;-15917.19;5114949;27;51053;-57
2023/03/11 08:36:19;;;;;;;;;4.00;3.00;;;;;-147.17;100.00;-15917.19;5113442;27;50971;-58
2023/03/11 08:38:45;;;;;;;;;5.75;5.75;;;;;-147.17;100.00;-15917.19;5115557;27;51415;-57
2023/03/11 08:41:10;;;;;;;;;5.00;5.00;;;;;-147.17;100.00;-15917.19;5108125;27;51152;-59
2023/03/11 08:43:36;;;;;;;;;4.00;3.75;;;;;-147.17;100.00;-15917.19;5111796;27;51042;-58
2023/03/11 08:46:05;;;;;;;;;6.00;5.75;;;;;-147.17;100.00;-15917.19;5113764;27;51255;-58
2023/03/11 08:48:35;;;;;;;;;6.25;5.75;;;;;-147.17;100.00;-15917.19;5098350;27;51220;-58
2023/03/11 08:51:01;;;;;;;;;6.75;6.75;;;;;-147.17;100.00;-15917.19;5089308;27;51227;-59
2023/03/11 08:53:27;;;;;;;;;8.00;8.00;;;;;-147.17;100.00;-15917.19;5110926;27;51356;-58
2023/03/11 08:55:52;;;;;;;;;6.50;6.00;;;;;-147.17;100.00;-15917.19;5109604;27;51203;-59
2023/03/11 08:58:19;;;;;;;;;4.25;4.25;;;;;-147.17;100.00;-15917.19;5114818;27;51724;-58
2023/03/11 09:00:45;;;;;;;;;6.00;6.00;;;;;-147.17;100.00;-15917.19;5110009;27;51129;-58
2023/03/11 09:03:10;;;;;;;;;9.25;8.75;;;;;-147.17;100.00;-15917.19;5096437;27;51095;-59
2023/03/11 09:05:36;;;;;;;;;6.00;6.00;;;;;-147.17;100.00;-15917.19;5109705;27;51239;-60
2023/03/11 09:08:02;;;;;;;;;7.25;7.25;;;;;-147.17;100.00;-15917.19;5109819;27;51322;-58
2023/03/11 09:10:28;;;;;;;;;7.00;6.75;;;;;-147.17;100.00;-15917.19;5107931;27;52764;-60
2023/03/11 09:12:57;;;;;;;;;7.50;7.50;;;;;-147.17;100.00;-15917.19;5110515;27;51539;-58
2023/03/11 09:15:23;;;;;;;;;8.75;7.00;;;;;-147.17;100.00;-15917.19;5115758;27;51208;-58
2023/03/11 09:17:48;;;;;;;;;7.25;6.50;;;;;-147.17;100.00;-15917.19;5112035;27;52818;-58
2023/03/11 09:20:15;;;;;;;;;7.25;7.25;;;;;-147.17;100.00;-15917.19;5101091;27;51436;-58
2023/03/11 09:22:40;;;;;;;;;7.25;7.00;;;;;-147.17;100.00;-15917.19;5113660;27;51714;-57
2023/03/11 09:25:07;;;;;;;;;7.00;6.50;;;;;-147.17;100.00;-15917.19;5113794;27;51133;-58
2023/03/11 09:27:32;;;;;;;;;6.00;4.50;;;;;-147.17;100.00;-15917.19;5113634;27;51050;-59
2023/03/11 09:29:58;;;;;;;;;8.25;7.75;;;;;-147.17;100.00;-15917.19;5113452;27;51794;-59
2023/03/11 09:32:24;;;;;;;;;3.75;3.00;;;;;-147.17;100.00;-15917.19;5114579;27;51107;-59
2023/03/11 09:34:50;;;;;;;;;7.50;6.25;;;;;-147.17;100.00;-15917.19;5112918;27;51050;-62
2023/03/11 09:37:15;;;;;;;;;2.75;2.75;;;;;-147.17;100.00;-15917.19;5099884;27;51127;-57
2023/03/11 09:39:41;;;;;;;;;4.00;4.00;;;;;-147.17;100.00;-15917.19;5109329;27;51934;-58
2023/03/11 09:42:49;;;;;;;;;0.25;0.25;;;;;-147.17;100.00;-15917.19;5114616;27;51212;-58
2023/03/11 09:45:20;;;;;;;;;6.75;5.50;;;;;-147.17;100.00;-15917.19;5111375;27;50954;-58
2023/03/11 09:48:02;;;;;;;;;7.00;6.00;;;;;-147.17;100.00;-15917.19;5111667;27;51095;-59
2023/03/11 09:50:31;;;;;;;;;6.50;6.50;;;;;-147.17;100.00;-15917.19;5113434;27;52505;-59
2023/03/11 09:53:09;;;;;;;;;8.50;5.50;;;;;-147.17;100.00;-15917.19;5107126;27;51153;-58
2023/03/11 09:55:39;;;;;;;;;6.75;6.50;;;;;-147.17;100.00;-15917.19;5113315;27;50940;-59
2023/03/11 09:58:32;;;;;;;;;4.00;4.00;;;;;-147.17;100.00;-15917.19;5113325;27;51251;-58
2023/03/11 10:01:00;;;;;;;;;8.00;8.00;;;;;-147.17;100.00;-15917.19;5089867;27;51297;-58
2023/03/11 10:03:31;;;;;;;;;6.50;6.00;;;;;-147.17;100.00;-15917.19;5095766;27;51149;-58
2023/03/11 10:06:20;;;;;;;;;9.75;9.00;;;;;-147.17;100.00;-15917.19;5086216;27;51562;-59
2023/03/11 10:09:11;;;;;;;;;5.75;5.75;;;;;-147.17;100.00;-15917.19;5101760;27;51403;-59
2023/03/11 10:12:09;;;;;;;;;6.00;5.00;;;;;-147.17;100.00;-15917.19;5112875;27;52266;-58
2023/03/11 10:14:41;;;;;;;;;4.00;4.00;;;;;-147.17;100.00;-15917.19;5105452;27;51032;-57
2023/03/11 10:17:18;;;;;;;;;6.00;5.50;;;;;-147.17;100.00;-15917.19;5108329;27;51051;-59
2023/03/11 10:19:56;;;;;;;;;5.50;4.75;;;;;-147.17;100.00;-15917.19;5113748;27;50962;-58
2023/03/11 10:22:30;;;;;;;;;8.00;7.25;;;;;-147.17;100.00;-15917.19;5091691;27;52791;-58
2023/03/11 10:24:56;;;;;;;;;5.50;5.25;;;;;-147.17;100.00;-15917.19;5109082;27;51099;-59
2023/03/11 10:27:28;;;;;;;;;7.00;4.50;;;;;-147.17;100.00;-15917.19;5113033;27;51221;-58
2023/03/11 10:30:30;;;;;;;;;5.25;5.25;;;;;-147.17;100.00;-15917.19;5095975;27;51250;-58
2023/03/11 10:33:18;;;;;;;;;8.00;7.00;;;;;-147.17;100.00;-15917.19;5110991;27;51010;-59
2023/03/11 10:35:48;;;;;;;;;7.50;7.00;;;;;-147.17;100.00;-15917.19;5094246;27;51196;-58
2023/03/11 10:38:20;;;;;;;;;5.25;5.00;;;;;-147.17;100.00;-15917.19;5105481;27;51330;-59
2023/03/11 10:40:50;;;;;;;;;6.75;4.25;;;;;-147.17;100.00;-15917.19;5101167;27;51159;-58
2023/03/11 10:43:27;;;;;;;;;4.50;4.50;;;;;-147.17;100.00;-15917.19;5111901;27;52828;-58
2023/03/11 10:45:53;;;;;;;;;9.00;8.75;;;;;-147.17;100.00;-15917.19;5105695;27;51051;-59
2023/03/11 10:48:21;;;;;;;;;5.25;4.50;;;;;-147.17;100.00;-15917.19;5113491;27;50941;-60
2023/03/11 10:51:21;;;;;;;;;5.25;4.25;;;;;-147.17;100.00;-15917.19;5113778;27;51149;-59
2023/03/11 10:53:50;;;;;;;;;7.50;5.50;;;;;-147.17;100.00;-15917.19;5109534;27;52290;-59
2023/03/11 10:56:24;;;;;;;;;3.00;3.00;;;;;-147.17;100.00;-15917.19;5112612;27;51238;-59
2023/03/11 10:58:50;;;;;;;;;4.25;3.50;;;;;-147.17;100.00;-15917.19;5111220;27;51050;-59
2023/03/11 11:01:17;;;;;;;;;4.00;4.00;;;;;-147.17;100.00;-15917.19;5110956;27;51330;-58